createdAt,value
2023-03-04T00:02:37.348Z,-0.10
2023-03-04T00:06:00.543Z,-0.64
2023-03-04T00:09:24.309Z,-0.53
2023-03-04T00:12:47.177Z,-0.28
2023-03-04T00:16:09.812Z,-0.04
2023-03-04T00:19:33.045Z,-0.35
2023-03-04T00:22:55.864Z,-0.02
2023-03-04T00:26:20.034Z,-0.22
2023-03-04T00:29:43.113Z,-0.31
2023-03-04T00:33:06.229Z,-0.71
2023-03-04T00:36:28.729Z,-0.60
2023-03-04T00:39:51.216Z,-0.75
2023-03-04T00:43:15.102Z,-0.94
2023-03-04T00:46:38.092Z,-1.09
2023-03-04T00:50:00.661Z,-0.90
2023-03-04T00:53:24.130Z,-1.16
2023-03-04T00:56:46.490Z,-0.67
2023-03-04T01:00:11.943Z,-0.60
2023-03-04T01:03:34.681Z,-0.79
2023-03-04T01:06:57.616Z,-0.95
2023-03-04T01:10:20.381Z,-0.66
2023-03-04T01:13:43.416Z,-0.77
2023-03-04T01:17:07.228Z,-0.73
2023-03-04T01:20:30.110Z,-0.88
2023-03-04T01:23:52.681Z,-1.09
2023-03-04T01:27:15.787Z,-1.25
2023-03-04T01:30:39.241Z,-1.12
2023-03-04T01:34:03.753Z,-1.55
2023-03-04T01:37:26.064Z,-1.52
2023-03-04T01:40:49.350Z,-1.40
2023-03-04T01:44:11.696Z,-1.44
2023-03-04T01:47:34.800Z,-1.14
2023-03-04T01:50:59.330Z,-1.98
2023-03-04T01:54:22.323Z,-1.78
2023-03-04T01:57:46.242Z,-1.91
2023-03-04T02:01:09.044Z,-1.64
2023-03-04T02:04:35.911Z,-1.46
2023-03-04T02:08:00.045Z,-1.84
2023-03-04T02:11:22.990Z,-1.88
2023-03-04T02:14:45.948Z,-1.84
2023-03-04T02:18:13.665Z,-2.15
2023-03-04T02:21:36.372Z,-2.10
2023-03-04T02:25:01.780Z,-2.09
2023-03-04T02:28:26.300Z,-2.00
2023-03-04T02:31:49.016Z,-2.09
2023-03-04T02:35:15.685Z,-1.87
2023-03-04T02:38:38.358Z,-1.99
2023-03-04T02:42:01.690Z,-1.79
2023-03-04T02:45:43.825Z,-2.06
2023-03-04T02:49:06.578Z,-1.93
2023-03-04T02:52:29.051Z,-2.13
2023-03-04T02:55:52.884Z,-2.41
2023-03-04T02:59:15.860Z,-2.62
2023-03-04T03:02:40.140Z,-2.39
2023-03-04T03:06:02.494Z,-2.44
2023-03-04T03:09:25.551Z,-2.54
2023-03-04T03:12:47.691Z,-2.31
2023-03-04T03:16:10.185Z,-2.68
2023-03-04T03:19:34.147Z,-3.00
2023-03-04T03:22:57.638Z,-2.81
2023-03-04T03:26:20.279Z,-2.70
2023-03-04T03:29:43.007Z,-2.71
2023-03-04T03:33:05.717Z,-3.18
2023-03-04T03:36:29.884Z,-2.67
2023-03-04T03:39:52.303Z,-2.74
2023-03-04T03:43:15.259Z,-2.66
2023-03-04T03:46:37.674Z,-2.74
2023-03-04T03:50:00.148Z,-3.00
2023-03-04T03:53:23.923Z,-3.27
2023-03-04T03:56:46.219Z,-3.30
2023-03-04T04:00:09.931Z,-3.19
2023-03-04T04:03:34.376Z,-3.06
2023-03-04T04:06:57.332Z,-2.95
2023-03-04T04:10:21.656Z,-3.61
2023-03-04T04:13:44.429Z,-3.33
2023-03-04T04:17:06.901Z,-3.12
2023-03-04T04:20:29.355Z,-3.55
2023-03-04T04:23:51.822Z,-3.54
2023-03-04T04:27:16.116Z,-3.39
2023-03-04T04:30:38.354Z,-3.34
2023-03-04T04:34:01.680Z,-2.82
2023-03-04T04:37:24.128Z,-3.56
2023-03-04T04:40:47.165Z,-3.16
2023-03-04T04:44:11.603Z,-3.48
2023-03-04T04:47:34.346Z,-3.12
2023-03-04T04:50:57.205Z,-2.69
2023-03-04T04:54:19.785Z,-2.56
2023-03-04T04:57:42.403Z,-3.21
2023-03-04T05:01:06.872Z,-3.19
2023-03-04T05:04:29.328Z,-3.32
2023-03-04T05:07:52.051Z,-3.29
2023-03-04T05:11:14.772Z,-2.92
2023-03-04T05:14:37.296Z,-4.12
2023-03-04T05:18:01.210Z,-3.72
2023-03-04T05:21:24.101Z,-3.81
2023-03-04T05:24:46.560Z,-4.10
2023-03-04T05:28:12.514Z,-4.17
2023-03-04T05:31:34.769Z,-4.20
2023-03-04T05:34:58.613Z,-4.22
2023-03-04T05:38:21.016Z,-4.28
2023-03-04T05:41:43.737Z,-4.27
2023-03-04T05:45:07.407Z,-4.56
2023-03-04T05:48:30.139Z,-4.43
2023-03-04T05:51:53.711Z,-4.30
2023-03-04T05:55:16.512Z,-4.27
2023-03-04T05:58:38.922Z,-4.34
2023-03-04T06:02:02.110Z,-4.01
2023-03-04T06:05:25.015Z,-3.96
2023-03-04T06:08:49.132Z,-3.93
2023-03-04T06:12:12.251Z,-3.91
2023-03-04T06:15:34.911Z,-3.77
2023-03-04T06:18:58.029Z,-3.56
2023-03-04T06:22:20.111Z,-3.50
2023-03-04T06:25:44.536Z,-3.46
2023-03-04T06:29:06.979Z,-3.30
2023-03-04T06:32:30.009Z,-2.94
2023-03-04T06:35:55.486Z,-2.76
2023-03-04T06:39:18.533Z,-2.53
2023-03-04T06:42:45.246Z,-2.22
2023-03-04T06:46:07.920Z,-2.05
2023-03-04T06:49:30.439Z,-1.88
2023-03-04T06:52:52.921Z,-1.47
2023-03-04T06:56:16.187Z,-1.14
2023-03-04T06:59:40.472Z,-0.71
2023-03-04T07:03:05.977Z,-0.43
2023-03-04T07:06:29.309Z,0.02
2023-03-04T07:09:51.891Z,0.28
2023-03-04T07:13:14.987Z,0.47
2023-03-04T07:16:38.690Z,0.75
2023-03-04T07:20:01.609Z,0.80
2023-03-04T07:23:24.367Z,1.14
2023-03-04T07:26:47.267Z,1.30
2023-03-04T07:30:11.465Z,1.50
2023-03-04T07:33:35.251Z,1.66
2023-03-04T07:36:57.924Z,1.84
2023-03-04T07:40:20.669Z,2.02
2023-03-04T07:43:43.294Z,2.54
2023-03-04T07:47:06.545Z,2.60
2023-03-04T07:50:30.301Z,2.69
2023-03-04T07:53:53.834Z,3.23
2023-03-04T07:57:16.370Z,3.53
2023-03-04T08:00:41.057Z,3.79
2023-03-04T08:04:03.937Z,4.78
2023-03-04T08:07:27.766Z,5.49
2023-03-04T08:10:50.316Z,6.20
2023-03-04T08:14:12.821Z,6.53
2023-03-04T08:17:35.981Z,6.98
2023-03-04T08:20:58.533Z,6.94
2023-03-04T08:24:22.515Z,7.42
2023-03-04T08:27:45.280Z,7.52
2023-03-04T08:31:08.217Z,8.18
2023-03-04T08:34:31.776Z,8.15
2023-03-04T08:37:54.852Z,8.68
2023-03-04T08:41:18.627Z,9.04
2023-03-04T08:44:41.308Z,8.76
2023-03-04T08:48:04.095Z,8.89
2023-03-04T08:51:26.712Z,9.49
2023-03-04T08:54:49.146Z,9.70
2023-03-04T08:58:13.565Z,10.17
2023-03-04T09:01:36.210Z,10.87
2023-03-04T09:04:59.336Z,11.20
2023-03-04T09:08:21.965Z,11.75
2023-03-04T09:11:44.722Z,11.87
2023-03-04T09:15:11.778Z,11.85
2023-03-04T09:18:34.906Z,11.96
2023-03-04T09:21:59.320Z,11.43
2023-03-04T09:25:22.449Z,12.21
2023-03-04T09:28:47.480Z,12.15
2023-03-04T09:32:11.556Z,12.62
2023-03-04T09:35:35.273Z,13.18
2023-03-04T09:39:00.779Z,13.08
2023-03-04T09:42:26.158Z,13.33
2023-03-04T09:45:50.803Z,13.63
2023-03-04T09:49:15.160Z,13.68
2023-03-04T09:52:43.979Z,13.46
2023-03-04T09:56:07.024Z,12.71
2023-03-04T09:59:32.139Z,12.88
2023-03-04T10:03:16.779Z,13.36
2023-03-04T10:06:40.895Z,13.29
2023-03-04T10:10:05.279Z,13.54
2023-03-04T10:13:32.789Z,13.43
2023-03-04T10:16:57.206Z,13.24
2023-03-04T10:20:20.950Z,13.41
2023-03-04T10:23:44.781Z,13.56
2023-03-04T10:27:08.526Z,13.12
2023-03-04T10:30:40.949Z,12.89
2023-03-04T10:34:04.405Z,13.17
2023-03-04T10:37:27.404Z,13.03
2023-03-04T10:40:51.311Z,13.66
2023-03-04T10:44:17.152Z,13.44
2023-03-04T10:47:40.477Z,13.59
2023-03-04T10:51:13.422Z,13.77
2023-03-04T10:54:39.616Z,13.62
2023-03-04T10:58:05.114Z,13.73
2023-03-04T11:01:30.386Z,13.66
2023-03-04T11:04:54.671Z,13.80
2023-03-04T11:08:19.300Z,14.24
2023-03-04T11:11:44.869Z,14.18
2023-03-04T11:15:18.832Z,13.88
2023-03-04T11:18:43.647Z,14.59
2023-03-04T11:22:06.222Z,13.99
2023-03-04T11:25:29.259Z,13.77
2023-03-04T11:28:53.985Z,14.23
2023-03-04T11:32:20.430Z,13.83
2023-03-04T11:35:58.307Z,14.34
2023-03-04T11:39:25.753Z,15.29
2023-03-04T11:42:49.356Z,14.82
2023-03-04T11:46:32.065Z,14.91
2023-03-04T11:50:08.961Z,14.85
2023-03-04T11:53:35.034Z,14.74
2023-03-04T11:57:00.109Z,16.54
2023-03-04T12:00:32.119Z,16.33
2023-03-04T12:04:08.819Z,15.63
2023-03-04T12:07:47.800Z,15.85
2023-03-04T12:11:11.555Z,15.30
2023-03-04T12:14:36.237Z,15.64
2023-03-04T12:18:23.136Z,15.24
2023-03-04T12:22:09.753Z,15.56
2023-03-04T12:25:41.498Z,15.14
2023-03-04T12:29:05.515Z,15.73
2023-03-04T12:32:33.211Z,15.40
2023-03-04T12:36:00.769Z,15.79
2023-03-04T12:39:27.807Z,15.58
2023-03-04T12:43:03.238Z,15.24
2023-03-04T12:46:32.972Z,15.87
2023-03-04T12:50:01.253Z,16.16
2023-03-04T12:53:29.904Z,16.19
2023-03-04T12:56:53.388Z,16.75
2023-03-04T13:00:22.200Z,16.64
2023-03-04T13:03:47.728Z,16.58
2023-03-04T13:07:13.535Z,16.49
2023-03-04T13:10:36.368Z,16.46
2023-03-04T13:14:03.116Z,16.24
2023-03-04T13:17:44.116Z,16.35
2023-03-04T13:21:08.346Z,16.21
2023-03-04T13:24:46.947Z,17.58
2023-03-04T13:28:29.298Z,17.17
2023-03-04T13:32:03.338Z,16.79
2023-03-04T13:35:52.638Z,16.72
2023-03-04T13:39:40.273Z,16.53
2023-03-04T13:43:29.128Z,16.33
2023-03-04T13:46:52.316Z,15.94
2023-03-04T13:50:37.400Z,16.22
2023-03-04T13:54:09.359Z,16.77
2023-03-04T13:57:32.300Z,16.56
2023-03-04T14:00:56.157Z,16.89
2023-03-04T14:04:20.479Z,16.83
2023-03-04T14:07:43.301Z,16.40
2023-03-04T14:11:11.260Z,16.70
2023-03-04T14:14:43.697Z,15.99
2023-03-04T14:18:06.614Z,16.33
2023-03-04T14:21:29.556Z,16.12
2023-03-04T14:25:02.730Z,16.51
2023-03-04T14:28:26.898Z,16.38
2023-03-04T14:31:50.639Z,16.08
2023-03-04T14:35:20.732Z,16.11
2023-03-04T14:38:46.692Z,16.33
2023-03-04T14:42:11.827Z,16.34
2023-03-04T14:45:36.698Z,16.23
2023-03-04T14:48:59.492Z,15.96
2023-03-04T14:52:32.423Z,16.50
2023-03-04T14:56:00.250Z,16.23
2023-03-04T14:59:30.697Z,16.06
2023-03-04T15:02:55.407Z,15.89
2023-03-04T15:06:21.955Z,15.85
2023-03-04T15:09:44.632Z,15.59
2023-03-04T15:13:09.388Z,15.50
2023-03-04T15:16:54.913Z,15.30
2023-03-04T15:20:26.235Z,15.03
2023-03-04T15:23:49.330Z,14.03
2023-03-04T15:27:13.206Z,14.32
2023-03-04T15:30:36.786Z,13.91
2023-03-04T15:34:00.665Z,13.54
2023-03-04T15:37:27.666Z,13.05
2023-03-04T15:40:51.765Z,13.25
2023-03-04T15:44:16.158Z,12.49
2023-03-04T15:47:39.512Z,12.30
2023-03-04T15:51:02.742Z,11.87
2023-03-04T15:54:28.329Z,11.71
2023-03-04T15:57:55.185Z,11.39
2023-03-04T16:01:20.099Z,10.75
2023-03-04T16:04:45.365Z,10.06
2023-03-04T16:08:08.557Z,9.96
2023-03-04T16:11:35.934Z,9.67
2023-03-04T16:14:58.906Z,9.42
2023-03-04T16:18:24.331Z,9.21
2023-03-04T16:21:47.735Z,9.00
2023-03-04T16:25:12.518Z,8.86
2023-03-04T16:28:36.699Z,8.57
2023-03-04T16:31:59.572Z,8.41
2023-03-04T16:35:25.360Z,8.21
2023-03-04T16:38:49.021Z,8.12
2023-03-04T16:42:13.746Z,7.92
2023-03-04T16:45:38.714Z,7.76
2023-03-04T16:49:02.201Z,7.67
2023-03-04T16:52:27.302Z,7.70
2023-03-04T16:55:50.320Z,7.64
2023-03-04T16:59:15.608Z,7.57
2023-03-04T17:02:39.633Z,7.51
2023-03-04T17:06:02.572Z,7.64
2023-03-04T17:09:26.566Z,7.48
2023-03-04T17:12:50.715Z,7.39
2023-03-04T17:16:15.705Z,7.40
2023-03-04T17:19:41.412Z,7.37
2023-03-04T17:23:05.386Z,7.23
2023-03-04T17:26:29.756Z,7.28
2023-03-04T17:29:55.060Z,7.17
2023-03-04T17:33:19.666Z,7.11
2023-03-04T17:36:45.156Z,7.07
2023-03-04T17:40:11.670Z,6.95
2023-03-04T17:43:35.599Z,6.98
2023-03-04T17:46:59.733Z,6.70
2023-03-04T17:50:23.423Z,6.74
2023-03-04T17:53:49.742Z,6.68
2023-03-04T17:57:14.294Z,6.70
2023-03-04T18:00:39.286Z,6.53
2023-03-04T18:04:04.369Z,6.61
2023-03-04T18:07:29.143Z,6.43
2023-03-04T18:10:57.993Z,6.46
2023-03-04T18:14:21.381Z,6.43
2023-03-04T18:17:46.417Z,6.53
2023-03-04T18:21:10.248Z,6.30
2023-03-04T18:24:35.061Z,6.29
2023-03-04T18:28:01.121Z,6.30
2023-03-04T18:31:28.809Z,6.22
2023-03-04T18:34:53.811Z,6.09
2023-03-04T18:38:19.613Z,6.13
2023-03-04T18:41:43.588Z,5.99
2023-03-04T18:45:11.928Z,5.90
2023-03-04T18:48:38.255Z,5.79
2023-03-04T18:52:03.103Z,5.53
2023-03-04T18:55:27.021Z,5.53
2023-03-04T18:58:52.611Z,5.47
2023-03-04T19:02:20.572Z,5.26
2023-03-04T19:05:45.335Z,5.22
2023-03-04T19:09:09.154Z,5.14
2023-03-04T19:12:34.619Z,4.98
2023-03-04T19:15:57.789Z,4.93
2023-03-04T19:19:23.891Z,4.89
2023-03-04T19:22:47.715Z,4.83
2023-03-04T19:26:14.280Z,4.69
2023-03-04T19:29:38.908Z,4.60
2023-03-04T19:33:03.779Z,4.46
2023-03-04T19:36:29.356Z,4.38
2023-03-04T19:39:56.306Z,4.28
2023-03-04T19:43:20.410Z,4.22
2023-03-04T19:46:45.875Z,4.03
2023-03-04T19:50:10.964Z,4.06
2023-03-04T19:53:36.683Z,3.99
2023-03-04T19:57:06.089Z,3.91
2023-03-04T20:00:30.708Z,3.92
2023-03-04T20:03:55.184Z,3.72
2023-03-04T20:07:20.717Z,3.69
2023-03-04T20:10:48.465Z,3.77
2023-03-04T20:14:12.916Z,3.78
2023-03-04T20:17:37.516Z,3.72
2023-03-04T20:21:01.846Z,3.78
2023-03-04T20:24:27.806Z,3.65
2023-03-04T20:27:53.513Z,3.64
2023-03-04T20:31:23.818Z,3.50
2023-03-04T20:34:49.662Z,3.54
2023-03-04T20:38:13.287Z,3.53
2023-03-04T20:41:36.512Z,3.44
2023-03-04T20:45:07.925Z,3.40
2023-03-04T20:48:35.325Z,3.39
2023-03-04T20:52:03.683Z,3.27
2023-03-04T20:55:28.251Z,3.27
2023-03-04T20:58:55.627Z,3.12
2023-03-04T21:02:25.696Z,3.14
2023-03-04T21:05:49.253Z,3.08
2023-03-04T21:09:17.156Z,2.89
2023-03-04T21:12:42.255Z,2.80
2023-03-04T21:16:06.436Z,2.79
2023-03-04T21:19:33.270Z,2.80
2023-03-04T21:22:58.248Z,2.91
2023-03-04T21:26:22.727Z,2.89
2023-03-04T21:29:46.182Z,2.98
2023-03-04T21:33:12.031Z,2.94
2023-03-04T21:36:37.733Z,2.96
2023-03-04T21:40:02.737Z,2.96
2023-03-04T21:43:26.095Z,2.80
2023-03-04T21:46:49.711Z,2.83
2023-03-04T21:50:12.838Z,2.86
2023-03-04T21:53:37.332Z,2.83
2023-03-04T21:57:00.639Z,2.89
2023-03-04T22:00:23.604Z,2.86
2023-03-04T22:03:47.370Z,2.83
2023-03-04T22:07:10.450Z,2.90
2023-03-04T22:10:38.253Z,2.94
2023-03-04T22:14:04.025Z,2.78
2023-03-04T22:17:27.233Z,2.75
2023-03-04T22:20:49.751Z,2.39
2023-03-04T22:24:13.079Z,2.33
2023-03-04T22:27:37.066Z,2.38
2023-03-04T22:31:00.107Z,2.35
2023-03-04T22:34:22.386Z,2.32
2023-03-04T22:37:44.962Z,2.19
2023-03-04T22:41:12.756Z,2.23
2023-03-04T22:44:36.602Z,2.23
2023-03-04T22:47:59.032Z,2.14
2023-03-04T22:51:21.929Z,2.11
2023-03-04T22:54:44.384Z,2.19
2023-03-04T22:58:07.021Z,2.15
2023-03-04T23:01:31.130Z,2.12
2023-03-04T23:04:54.088Z,2.02
2023-03-04T23:08:16.633Z,1.90
2023-03-04T23:11:42.401Z,1.80
2023-03-04T23:15:07.268Z,1.86
2023-03-04T23:18:31.910Z,1.87
2023-03-04T23:21:54.286Z,1.78
2023-03-04T23:25:16.846Z,1.84
2023-03-04T23:28:39.089Z,1.79
2023-03-04T23:32:01.497Z,1.82
2023-03-04T23:35:25.285Z,1.85
2023-03-04T23:38:50.214Z,1.80
2023-03-04T23:42:12.758Z,1.75
2023-03-04T23:45:35.241Z,1.73
2023-03-04T23:48:57.660Z,1.40
2023-03-04T23:52:21.426Z,1.64
2023-03-04T23:55:43.674Z,1.56
2023-03-04T23:59:07.801Z,1.43
